Time;durP1;ratioP1;P1;durP2;ratioP2;P2;SDS_P1;SDS_P2;PMS_P1;PMS_P2;Temp;Humidity;BMP_temperature;BMP_pressure;BME280_temperature;BME280_humidity;BME280_pressure;Samples;Min_cycle;Max_cycle;Signal;HPM_P1;HPM_P2
2022/03/22 00:00:03;;;;;;;23.50;15.57;;;20.00;41.20;;;;;;5159192;27;20014;-75
2022/03/22 00:02:29;;;;;;;21.88;14.50;;;20.00;41.20;;;;;;5140144;27;20106;-75
2022/03/22 00:04:55;;;;;;;22.02;15.07;;;20.00;41.30;;;;;;5158628;27;20026;-74
2022/03/22 00:07:22;;;;;;;23.25;15.23;;;19.90;41.20;;;;;;5160276;27;20015;-79
2022/03/22 00:09:48;;;;;;;22.45;14.73;;;19.90;41.20;;;;;;5159837;27;20019;-74
2022/03/22 00:12:15;;;;;;;24.08;15.73;;;19.90;41.20;;;;;;5142124;27;20037;-74
2022/03/22 00:14:43;;;;;;;21.20;14.43;;;19.90;41.30;;;;;;5161797;27;20102;-75
2022/03/22 00:17:09;;;;;;;24.85;16.73;;;19.90;41.30;;;;;;5160435;27;20017;-75
2022/03/22 00:19:34;;;;;;;22.17;14.90;;;19.90;41.30;;;;;;5141814;27;20015;-75
2022/03/22 00:22:02;;;;;;;21.90;14.70;;;19.90;41.30;;;;;;5124171;27;20034;-75
2022/03/22 00:24:28;;;;;;;23.48;16.02;;;19.90;41.20;;;;;;5160585;27;20057;-76
2022/03/22 00:26:54;;;;;;;22.35;14.80;;;19.90;41.30;;;;;;5159842;27;20400;-74
2022/03/22 00:29:20;;;;;;;22.77;15.40;;;19.90;41.30;;;;;;5141323;27;20091;-75
2022/03/22 00:31:47;;;;;;;22.35;15.20;;;19.90;41.40;;;;;;5141585;27;20078;-74
2022/03/22 00:34:13;;;;;;;22.98;15.52;;;19.90;41.40;;;;;;5124431;27;20010;-74
2022/03/22 00:36:42;;;;;;;22.88;15.20;;;19.90;41.40;;;;;;5141299;27;20030;-75
2022/03/22 00:39:09;;;;;;;22.48;15.32;;;19.80;41.30;;;;;;5140297;27;20043;-74
2022/03/22 00:41:35;;;;;;;23.13;15.50;;;19.80;41.30;;;;;;5141210;27;20010;-78
2022/03/22 00:44:22;;;;;;;22.33;15.20;;;19.90;41.40;;;;;;5143413;27;20059;-74
2022/03/22 00:46:50;;;;;;;24.58;15.98;;;19.90;41.40;;;;;;5123891;27;20018;-74
2022/03/22 00:49:15;;;;;;;21.88;15.57;;;19.80;41.40;;;;;;5123728;27;20160;-77
2022/03/22 00:51:42;;;;;;;23.98;15.57;;;19.80;41.40;;;;;;5160118;27;20015;-81
2022/03/22 00:54:08;;;;;;;25.33;15.48;;;19.80;41.40;;;;;;5159534;27;20563;-73
2022/03/22 00:56:35;;;;;;;21.25;14.68;;;19.80;41.40;;;;;;5159124;27;20042;-75
2022/03/22 01:01:46;;;;;;;23.63;14.98;;;19.80;41.50;;;;;;5148920;27;20029;-77
2022/03/22 01:04:11;;;;;;;21.75;14.88;;;19.80;41.50;;;;;;5163632;27;20019;-78
2022/03/22 01:06:37;;;;;;;23.17;14.95;;;19.80;41.50;;;;;;5145758;27;20028;-80
2022/03/22 01:09:04;;;;;;;20.45;14.90;;;19.70;41.50;;;;;;5145775;27;20015;-76
2022/03/22 01:11:30;;;;;;;22.88;15.10;;;19.70;41.50;;;;;;5146264;27;20083;-77
2022/03/22 01:13:58;;;;;;;20.58;14.75;;;19.80;41.50;;;;;;5146981;27;20010;-76
2022/03/22 01:16:24;;;;;;;22.67;15.57;;;19.70;41.50;;;;;;5146743;27;20026;-76
2022/03/22 01:18:51;;;;;;;23.40;15.27;;;19.70;41.60;;;;;;5164546;27;20015;-75
2022/03/22 01:21:18;;;;;;;23.60;15.25;;;19.70;41.50;;;;;;5162213;27;20090;-81
2022/03/22 01:23:45;;;;;;;22.23;15.45;;;19.70;41.50;;;;;;5145458;27;20019;-77
2022/03/22 01:26:12;;;;;;;21.52;15.55;;;19.70;41.50;;;;;;5145182;27;20043;-77
2022/03/22 01:28:38;;;;;;;20.98;15.57;;;19.70;41.50;;;;;;5145818;27;20031;-77
2022/03/22 01:31:04;;;;;;;22.27;15.75;;;19.70;41.60;;;;;;5164078;27;20023;-79
2022/03/22 01:33:30;;;;;;;21.08;15.25;;;19.70;41.60;;;;;;5129765;27;20071;-75
2022/03/22 01:35:57;;;;;;;20.75;14.30;;;19.70;41.50;;;;;;5147953;27;20023;-80
2022/03/22 01:38:23;;;;;;;20.92;14.65;;;19.70;41.60;;;;;;5130221;27;20042;-79
2022/03/22 01:40:49;;;;;;;20.45;14.68;;;19.70;41.60;;;;;;5130647;27;20011;-77
2022/03/22 01:43:16;;;;;;;22.25;16.13;;;19.70;41.60;;;;;;5165486;27;20101;-75
2022/03/22 01:45:43;;;;;;;23.00;15.50;;;19.60;41.60;;;;;;5148155;27;20023;-77
2022/03/22 01:48:09;;;;;;;22.25;14.88;;;19.60;41.50;;;;;;5129864;27;20031;-77
2022/03/22 01:50:36;;;;;;;19.65;14.57;;;19.60;41.50;;;;;;5129162;27;20023;-75
2022/03/22 01:53:03;;;;;;;21.23;14.60;;;19.60;41.60;;;;;;5145776;27;20489;-76
2022/03/22 01:55:29;;;;;;;19.45;14.05;;;19.60;41.60;;;;;;5145936;27;20014;-76
2022/03/22 01:57:56;;;;;;;21.55;14.55;;;19.60;41.60;;;;;;5163524;27;20011;-75
2022/03/22 02:00:21;;;;;;;20.48;14.90;;;19.60;41.60;;;;;;5128435;27;20011;-75
2022/03/22 02:05:51;;;;;;;20.65;14.80;;;19.60;41.60;;;;;;5146074;27;20029;-73
2022/03/22 02:08:18;;;;;;;19.20;14.50;;;19.60;41.60;;;;;;5126745;27;20021;-73
2022/03/22 02:10:44;;;;;;;20.95;14.75;;;19.60;41.60;;;;;;5141144;27;20030;-78
2022/03/22 02:13:10;;;;;;;19.48;14.45;;;19.60;41.70;;;;;;5123725;27;20409;-73
2022/03/22 02:15:36;;;;;;;19.85;14.57;;;19.60;41.60;;;;;;5140331;27;20015;-74
2022/03/22 02:18:03;;;;;;;20.70;14.80;;;19.60;41.70;;;;;;5140412;27;20047;-75
2022/03/22 02:20:30;;;;;;;19.95;14.85;;;19.60;41.70;;;;;;5160132;27;20037;-75
2022/03/22 02:23:01;;;;;;;22.40;15.25;;;19.50;41.60;;;;;;5124796;27;20023;-75
2022/03/22 02:25:27;;;;;;;20.05;14.80;;;19.60;41.70;;;;;;5141569;27;20007;-75
2022/03/22 02:27:57;;;;;;;18.98;14.00;;;19.50;41.60;;;;;;5159503;27;20090;-81
2022/03/22 02:30:23;;;;;;;18.38;13.75;;;19.50;41.60;;;;;;5161673;27;20038;-76
2022/03/22 02:32:54;;;;;;;22.70;15.20;;;19.50;41.70;;;;;;5144575;27;20473;-75
2022/03/22 02:35:20;;;;;;;21.60;14.88;;;19.50;41.60;;;;;;5143624;27;20469;-76
2022/03/22 02:37:46;;;;;;;18.25;14.13;;;19.50;41.60;;;;;;5126306;27;20027;-76
2022/03/22 02:40:13;;;;;;;20.75;14.48;;;19.50;41.60;;;;;;5161906;27;20042;-76
2022/03/22 02:42:44;;;;;;;20.00;14.38;;;19.50;41.60;;;;;;5143488;27;20499;-75
2022/03/22 02:45:11;;;;;;;18.23;13.32;;;19.50;41.70;;;;;;5124538;27;20014;-74
2022/03/22 02:47:40;;;;;;;19.70;14.18;;;19.50;41.70;;;;;;5124517;27;20018;-75
2022/03/22 02:50:07;;;;;;;18.30;13.98;;;19.50;41.70;;;;;;5141102;27;20114;-74
2022/03/22 02:52:33;;;;;;;20.05;14.82;;;19.40;41.60;;;;;;5140733;27;20041;-74
2022/03/22 02:55:00;;;;;;;21.60;15.25;;;19.40;41.60;;;;;;5159795;27;20022;-79
2022/03/22 02:57:25;;;;;;;18.85;14.30;;;19.50;41.70;;;;;;5158716;27;20006;-75
2022/03/22 02:59:52;;;;;;;18.25;13.65;;;19.40;41.60;;;;;;5139809;27;20027;-74
2022/03/22 03:02:17;;;;;;;19.30;14.07;;;19.40;41.60;;;;;;5123161;27;20011;-74
2022/03/22 03:04:43;;;;;;;19.88;14.23;;;19.40;41.60;;;;;;5124618;27;20015;-79
2022/03/22 03:07:09;;;;;;;18.40;13.93;;;19.40;41.60;;;;;;5124710;27;20019;-75
2022/03/22 03:09:35;;;;;;;17.73;13.85;;;19.40;41.60;;;;;;5142314;27;20015;-75
2022/03/22 03:12:02;;;;;;;19.80;14.05;;;19.40;41.60;;;;;;5143228;27;20067;-76
2022/03/22 03:14:40;;;;;;;18.45;13.50;;;19.40;41.70;;;;;;5141249;27;20499;-75
2022/03/22 03:17:08;;;;;;;18.17;13.95;;;19.40;41.70;;;;;;5144138;27;20015;-75
2022/03/22 03:19:33;;;;;;;18.02;13.18;;;19.40;41.70;;;;;;5141485;27;20071;-76
2022/03/22 03:22:00;;;;;;;18.80;14.25;;;19.30;41.70;;;;;;5141024;27;20034;-75
2022/03/22 03:24:26;;;;;;;18.30;13.65;;;19.40;42.20;;;;;;5140466;27;20011;-75
2022/03/22 03:26:52;;;;;;;18.42;13.65;;;19.30;41.60;;;;;;5123382;27;20035;-74
2022/03/22 03:29:17;;;;;;;20.25;14.05;;;19.40;41.70;;;;;;5140660;27;20421;-74
2022/03/22 03:31:43;;;;;;;19.40;13.73;;;19.40;41.70;;;;;;5141742;27;20133;-77
2022/03/22 03:34:09;;;;;;;17.17;14.02;;;19.40;41.70;;;;;;5140564;27;20051;-78
2022/03/22 03:36:35;;;;;;;18.35;13.65;;;19.40;41.70;;;;;;5141343;27;20021;-75
2022/03/22 03:39:03;;;;;;;16.17;12.85;;;19.30;41.70;;;;;;5124002;27;20018;-81
2022/03/22 03:47:05;;;;;;;17.63;13.90;;;19.30;42.30;;;;;;5145040;27;20083;-75
2022/03/22 03:49:40;;;;;;;18.00;13.30;;;19.30;41.70;;;;;;5143285;27;20030;-76
2022/03/22 03:52:07;;;;;;;18.75;13.93;;;19.30;41.70;;;;;;5141816;27;20082;-81
2022/03/22 03:54:33;;;;;;;17.73;13.65;;;19.30;41.70;;;;;;5125513;27;20011;-75
2022/03/22 03:56:59;;;;;;;18.45;13.88;;;19.30;41.70;;;;;;5143183;27;20093;-81
2022/03/22 03:59:26;;;;;;;17.98;13.80;;;19.30;41.70;;;;;;5144456;27;20014;-75
2022/03/22 04:01:52;;;;;;;18.92;13.48;;;19.30;41.70;;;;;;5145815;27;20098;-76
2022/03/22 04:04:19;;;;;;;18.20;13.43;;;19.30;41.70;;;;;;5145995;27;20015;-79
2022/03/22 04:06:47;;;;;;;15.95;13.13;;;19.30;41.70;;;;;;5163169;27;20051;-77
2022/03/22 04:09:13;;;;;;;17.25;13.20;;;19.20;41.60;;;;;;5144716;27;20022;-81
2022/03/22 04:11:39;;;;;;;17.17;13.18;;;19.20;41.70;;;;;;5125098;27;20018;-77
2022/03/22 04:14:06;;;;;;;17.15;13.00;;;19.30;41.70;;;;;;5141520;27;20047;-79
2022/03/22 04:16:31;;;;;;;17.52;13.40;;;19.30;41.70;;;;;;5158962;27;20122;-77
2022/03/22 04:18:58;;;;;;;15.35;12.65;;;19.20;41.60;;;;;;5123279;27;20034;-76
2022/03/22 04:21:24;;;;;;;17.40;13.27;;;19.20;41.60;;;;;;5140051;27;20034;-76
2022/03/22 04:23:51;;;;;;;17.27;13.18;;;19.20;41.60;;;;;;5122780;27;20022;-78
2022/03/22 04:26:17;;;;;;;18.92;13.38;;;19.20;41.60;;;;;;5140414;27;20047;-81
2022/03/22 04:34:11;;;;;;;20.02;13.30;;;19.20;41.60;;;;;;5143633;27;20046;-79
2022/03/22 04:36:37;;;;;;;15.57;12.23;;;19.20;41.60;;;;;;5144957;27;20007;-76
2022/03/22 04:39:03;;;;;;;18.17;12.55;;;19.20;41.60;;;;;;5145095;27;20011;-75
2022/03/22 04:41:29;;;;;;;17.48;12.65;;;19.20;41.60;;;;;;5144900;27;20031;-79
2022/03/22 04:43:55;;;;;;;15.63;12.65;;;19.20;41.60;;;;;;5164044;27;20026;-75
2022/03/22 04:46:23;;;;;;;16.63;12.38;;;19.20;41.60;;;;;;5128216;27;20021;-75
2022/03/22 04:48:50;;;;;;;15.75;11.95;;;19.20;41.60;;;;;;5145838;27;20027;-77
2022/03/22 04:56:47;;;;;;;16.23;12.57;;;19.60;40.80;;;;;;5146830;27;20030;-79
2022/03/22 04:59:14;;;;;;;18.15;12.93;;;19.70;40.40;;;;;;5126841;27;20039;-76
2022/03/22 05:01:42;;;;;;;16.67;12.75;;;19.80;40.10;;;;;;5143625;27;20022;-74
2022/03/22 05:04:11;;;;;;;15.18;11.75;;;19.90;39.80;;;;;;5143914;27;20027;-74
2022/03/22 05:06:38;;;;;;;15.45;12.40;;;20.00;39.60;;;;;;5126974;27;20018;-74
2022/03/22 05:09:04;;;;;;;16.15;11.80;;;20.10;39.50;;;;;;5144148;27;20465;-74
2022/03/22 05:11:31;;;;;;;15.43;11.73;;;20.20;39.30;;;;;;5144848;27;20022;-78
2022/03/22 05:13:58;;;;;;;14.25;11.32;;;20.20;39.10;;;;;;5163336;27;20034;-76
2022/03/22 05:16:26;;;;;;;19.52;12.50;;;20.30;39.00;;;;;;5145878;27;20027;-74
2022/03/22 05:18:52;;;;;;;14.45;11.23;;;20.40;38.70;;;;;;5146514;27;20068;-75
2022/03/22 05:21:19;;;;;;;13.55;11.23;;;20.50;38.50;;;;;;5128445;27;20034;-74
2022/03/22 05:23:45;;;;;;;16.10;11.43;;;20.60;38.30;;;;;;5145284;27;20068;-75
2022/03/22 05:26:12;;;;;;;17.63;12.45;;;20.80;38.10;;;;;;5146445;27;20541;-79
2022/03/22 05:28:38;;;;;;;15.52;12.05;;;20.80;37.90;;;;;;5147096;27;20075;-75
2022/03/22 05:31:05;;;;;;;14.15;11.32;;;20.90;37.70;;;;;;5163596;27;20018;-77
2022/03/22 05:33:34;;;;;;;14.10;11.25;;;21.00;37.50;;;;;;5144058;27;20042;-77
2022/03/22 05:36:00;;;;;;;14.63;11.50;;;21.10;37.20;;;;;;5144130;27;20011;-76
2022/03/22 05:38:25;;;;;;;15.23;11.65;;;21.20;37.00;;;;;;5142864;27;20381;-76
2022/03/22 05:40:54;;;;;;;14.00;10.75;;;21.30;36.80;;;;;;5142186;27;20015;-75
2022/03/22 05:43:21;;;;;;;13.40;11.10;;;21.40;36.70;;;;;;5141537;27;20067;-74
2022/03/22 05:45:48;;;;;;;13.63;11.38;;;21.50;36.50;;;;;;5140725;27;20025;-74
2022/03/22 05:48:18;;;;;;;12.35;10.45;;;21.50;36.40;;;;;;5141601;27;20019;-74
2022/03/22 05:50:44;;;;;;;13.45;10.40;;;21.60;36.20;;;;;;5123892;27;20488;-75
2022/03/22 05:53:10;;;;;;;13.23;10.98;;;21.70;36.10;;;;;;5142122;27;20030;-76
2022/03/22 05:55:38;;;;;;;13.43;11.18;;;21.70;35.90;;;;;;5142258;27;20030;-75
2022/03/22 05:58:05;;;;;;;14.07;10.77;;;21.80;35.80;;;;;;5143707;27;20007;-76
2022/03/22 06:00:31;;;;;;;13.70;11.00;;;21.80;35.70;;;;;;5161397;27;20026;-74
2022/03/22 06:02:59;;;;;;;13.38;10.88;;;21.80;35.60;;;;;;5143741;27;20030;-74
2022/03/22 06:05:25;;;;;;;14.25;10.55;;;21.90;35.50;;;;;;5144590;27;20014;-73
2022/03/22 06:07:51;;;;;;;13.50;10.75;;;21.90;35.50;;;;;;5144903;27;20045;-81
2022/03/22 06:10:18;;;;;;;12.93;10.32;;;21.90;35.30;;;;;;5144887;27;20492;-75
2022/03/22 06:12:45;;;;;;;12.75;10.13;;;22.00;35.30;;;;;;5144782;27;20035;-75
2022/03/22 06:15:15;;;;;;;15.20;10.48;;;22.10;35.10;;;;;;5162498;27;20010;-74
2022/03/22 06:17:45;;;;;;;12.35;10.10;;;22.20;35.00;;;;;;5161959;27;20034;-75
2022/03/22 06:20:11;;;;;;;13.00;9.82;;;22.20;34.80;;;;;;5162483;27;20097;-78
2022/03/22 06:22:38;;;;;;;11.85;9.77;;;22.30;35.20;;;;;;5162368;27;20030;-75
2022/03/22 06:25:04;;;;;;;13.70;10.00;;;22.40;34.60;;;;;;5142578;27;20015;-75
2022/03/22 06:27:33;;;;;;;11.75;10.48;;;22.40;34.40;;;;;;5142893;27;20497;-75
2022/03/22 06:30:01;;;;;;;13.35;9.77;;;22.40;34.30;;;;;;5143540;27;20121;-76
2022/03/22 06:32:28;;;;;;;11.63;9.40;;;22.50;34.30;;;;;;5143388;27;20110;-75
2022/03/22 06:34:54;;;;;;;12.07;10.10;;;22.50;34.20;;;;;;5161821;27;20007;-75
2022/03/22 06:37:21;;;;;;;12.38;9.70;;;22.50;34.00;;;;;;5161545;27;20022;-75
2022/03/22 06:39:47;;;;;;;13.30;9.80;;;22.60;34.00;;;;;;5125645;27;20067;-75
2022/03/22 06:42:14;;;;;;;12.27;10.30;;;22.70;34.00;;;;;;5108723;27;20026;-78
2022/03/22 06:44:40;;;;;;;11.00;9.32;;;22.70;33.80;;;;;;5127876;27;20132;-76
2022/03/22 06:47:06;;;;;;;12.63;9.60;;;22.80;33.70;;;;;;5143933;27;20445;-76
2022/03/22 06:49:33;;;;;;;11.07;9.43;;;22.80;33.60;;;;;;5144514;27;20017;-75
2022/03/22 06:51:59;;;;;;;10.73;9.18;;;22.80;33.60;;;;;;5164129;27;20031;-76
2022/03/22 06:54:25;;;;;;;10.23;9.13;;;22.80;33.50;;;;;;5144733;27;20027;-79
2022/03/22 06:56:51;;;;;;;11.68;9.02;;;22.90;33.50;;;;;;5145347;27;20022;-79
2022/03/22 06:59:16;;;;;;;11.52;9.20;;;22.90;33.40;;;;;;5127982;27;20493;-75
2022/03/22 07:01:42;;;;;;;10.23;8.90;;;23.00;33.40;;;;;;5128101;27;20087;-78
2022/03/22 07:04:08;;;;;;;13.10;9.43;;;23.00;33.20;;;;;;5146314;27;20022;-74
2022/03/22 07:06:34;;;;;;;11.75;8.90;;;23.10;33.10;;;;;;5130324;27;20485;-74
2022/03/22 07:09:02;;;;;;;11.10;9.15;;;23.10;33.00;;;;;;5165793;27;20040;-75
2022/03/22 07:14:13;;;;;;;11.65;9.38;;;23.30;32.70;;;;;;5146293;27;20064;-74
2022/03/22 07:16:39;;;;;;;10.77;9.00;;;23.40;32.70;;;;;;5109945;27;20063;-74
2022/03/22 07:19:08;;;;;;;13.32;9.23;;;23.30;32.80;;;;;;5108671;27;20011;-73
2022/03/22 07:21:36;;;;;;;11.73;9.10;;;23.10;32.80;;;;;;5142619;27;20030;-74
2022/03/22 07:24:03;;;;;;;17.85;9.25;;;23.10;32.90;;;;;;5125012;27;20015;-82
2022/03/22 07:26:29;;;;;;;18.67;9.13;;;23.00;33.50;;;;;;5139360;27;20465;-75
2022/03/22 07:28:55;;;;;;;27.02;10.02;;;22.50;34.30;;;;;;5139587;27;20036;-72
2022/03/22 07:31:21;;;;;;;32.60;10.68;;;22.40;35.70;;;;;;5122102;27;20385;-74
2022/03/22 07:33:47;;;;;;;30.25;10.15;;;22.40;36.50;;;;;;5122672;27;20030;-72
2022/03/22 07:36:13;;;;;;;24.67;10.98;;;22.40;36.50;;;;;;5138442;27;20533;-72
2022/03/22 07:38:39;;;;;;;26.67;10.98;;;22.40;36.40;;;;;;5121935;27;20078;-73
2022/03/22 07:41:07;;;;;;;28.58;10.65;;;22.40;36.20;;;;;;5122017;27;20046;-74
2022/03/22 07:43:32;;;;;;;24.33;10.43;;;22.40;35.70;;;;;;5122714;27;20014;-72
2022/03/22 07:45:59;;;;;;;16.33;9.98;;;22.50;35.60;;;;;;5140189;27;20030;-73
2022/03/22 07:48:25;;;;;;;23.85;10.35;;;22.50;35.40;;;;;;5105324;27;20018;-73
2022/03/22 07:53:35;;;;;;;20.80;9.98;;;22.50;35.10;;;;;;5129168;27;20511;-74
2022/03/22 07:56:04;;;;;;;16.92;10.35;;;22.70;35.00;;;;;;5124341;27;20027;-74
2022/03/22 07:58:30;;;;;;;16.20;10.07;;;22.70;34.80;;;;;;5122611;27;20014;-74
2022/03/22 08:00:57;;;;;;;17.52;10.45;;;22.70;34.80;;;;;;5140841;27;20023;-73
2022/03/22 08:03:23;;;;;;;17.95;9.88;;;22.70;34.70;;;;;;5124402;27;20029;-74
2022/03/22 08:05:49;;;;;;;24.83;10.63;;;22.70;34.60;;;;;;5145539;27;20062;-76
2022/03/22 08:08:15;;;;;;;17.42;9.90;;;22.90;34.30;;;;;;5151313;27;20011;-75
2022/03/22 08:10:44;;;;;;;20.88;10.05;;;22.90;34.00;;;;;;5114088;27;20048;-74
2022/03/22 08:13:11;;;;;;;24.25;9.48;;;23.00;33.90;;;;;;5138619;27;20021;-73
2022/03/22 08:15:37;;;;;;;17.38;9.57;;;23.00;33.80;;;;;;5102343;27;20023;-73
2022/03/22 08:18:03;;;;;;;20.13;9.82;;;23.00;33.80;;;;;;5119010;27;20034;-73
2022/03/22 08:20:30;;;;;;;29.52;10.02;;;23.10;34.10;;;;;;5119235;27;20018;-74
2022/03/22 08:23:15;;;;;;;25.95;9.60;;;23.10;35.10;;;;;;5119160;27;20014;-74
2022/03/22 08:25:43;;;;;;;34.88;9.50;;;23.20;35.30;;;;;;5122988;27;20101;-73
2022/03/22 08:28:10;;;;;;;26.27;9.25;;;23.40;35.50;;;;;;5121658;27;20030;-73
2022/03/22 08:30:36;;;;;;;31.52;9.25;;;23.50;35.70;;;;;;5121013;27;20461;-73
2022/03/22 08:33:06;;;;;;;24.30;9.35;;;23.60;35.90;;;;;;5137745;27;20031;-75
2022/03/22 08:35:32;;;;;;;27.02;8.98;;;23.70;35.50;;;;;;5122291;27;20036;-75
2022/03/22 08:37:58;;;;;;;32.95;9.35;;;23.70;35.70;;;;;;5138918;27;20038;-73
2022/03/22 08:40:26;;;;;;;22.08;9.43;;;23.80;35.60;;;;;;5140280;27;20082;-73
2022/03/22 08:42:53;;;;;;;25.80;10.05;;;23.80;35.60;;;;;;5124108;27;20038;-72
2022/03/22 08:45:20;;;;;;;17.52;8.48;;;23.90;35.60;;;;;;5123957;27;20025;-80
2022/03/22 08:47:47;;;;;;;26.73;8.80;;;23.90;35.40;;;;;;5106195;27;20015;-73
2022/03/22 08:50:17;;;;;;;24.33;9.00;;;23.90;35.40;;;;;;5121656;27;20097;-74
2022/03/22 08:52:43;;;;;;;17.50;9.13;;;24.00;35.30;;;;;;5104001;27;20049;-75
2022/03/22 08:55:13;;;;;;;19.83;8.75;;;24.00;35.20;;;;;;5104033;27;20429;-78
2022/03/22 08:57:39;;;;;;;24.20;9.07;;;24.00;35.10;;;;;;5123506;27;20030;-73
2022/03/22 09:00:08;;;;;;;18.58;8.73;;;24.00;34.80;;;;;;5139595;27;20089;-74
2022/03/22 09:02:35;;;;;;;19.87;8.77;;;24.10;34.80;;;;;;5122298;27;20010;-81
2022/03/22 09:07:48;;;;;;;24.10;9.05;;;24.20;34.60;;;;;;5126863;27;20034;-72
2022/03/22 09:10:15;;;;;;;21.73;8.68;;;24.30;34.20;;;;;;5105014;27;20067;-72
2022/03/22 09:12:48;;;;;;;20.15;8.85;;;24.30;34.20;;;;;;5121139;27;20027;-74
2022/03/22 09:15:18;;;;;;;27.08;9.40;;;24.20;34.20;;;;;;5121554;27;20015;-74
2022/03/22 09:17:44;;;;;;;29.38;9.48;;;24.10;33.70;;;;;;5103107;27;20097;-73
2022/03/22 09:20:13;;;;;;;32.75;10.30;;;24.00;33.80;;;;;;5102200;27;20031;-73
2022/03/22 09:22:42;;;;;;;24.65;9.57;;;24.10;32.90;;;;;;5139841;27;20098;-73
2022/03/22 09:25:12;;;;;;;24.05;9.82;;;24.20;32.30;;;;;;5158634;27;20494;-73
2022/03/22 09:27:38;;;;;;;21.42;9.20;;;24.30;31.80;;;;;;5139737;27;20098;-73
2022/03/22 09:30:05;;;;;;;25.75;9.63;;;24.40;31.40;;;;;;5123258;27;20040;-73
2022/03/22 09:32:31;;;;;;;16.73;8.30;;;24.60;31.10;;;;;;5139127;27;20023;-73
2022/03/22 09:35:00;;;;;;;25.00;8.95;;;24.60;30.70;;;;;;5139434;27;20022;-73
2022/03/22 09:37:27;;;;;;;17.52;8.20;;;24.70;30.70;;;;;;5158414;27;20035;-73
2022/03/22 09:39:53;;;;;;;18.85;9.02;;;24.70;30.50;;;;;;5122412;27;20093;-72
2022/03/22 09:42:19;;;;;;;18.48;8.25;;;24.70;30.40;;;;;;5140487;27;20080;-87
2022/03/22 09:44:49;;;;;;;18.15;9.27;;;24.80;30.30;;;;;;5140904;27;20026;-72
2022/03/22 09:47:15;;;;;;;18.33;8.38;;;24.80;30.00;;;;;;5138968;27;20011;-73
2022/03/22 09:49:40;;;;;;;22.15;8.50;;;24.90;29.90;;;;;;5138629;27;20369;-73
2022/03/22 09:52:06;;;;;;;18.10;7.68;;;25.00;29.90;;;;;;5157318;27;20093;-75
2022/03/22 09:54:35;;;;;;;18.73;8.40;;;25.00;29.80;;;;;;5104415;27;20022;-73
2022/03/22 09:57:04;;;;;;;16.48;8.00;;;25.00;29.80;;;;;;5140764;27;20087;-73
2022/03/22 09:59:34;;;;;;;14.80;7.77;;;24.90;29.70;;;;;;5140465;27;20473;-74
2022/03/22 10:02:01;;;;;;;19.23;8.52;;;24.90;29.70;;;;;;5140224;27;20023;-74
2022/03/22 10:04:39;;;;;;;14.93;7.82;;;24.90;29.60;;;;;;5121998;27;20010;-74
2022/03/22 10:07:06;;;;;;;13.80;7.80;;;24.90;29.60;;;;;;5123603;27;20034;-74
2022/03/22 10:09:36;;;;;;;16.88;8.27;;;25.00;29.60;;;;;;5105371;27;20064;-71
2022/03/22 10:12:03;;;;;;;16.67;7.45;;;25.00;29.40;;;;;;5122392;27;20036;-73
2022/03/22 10:14:37;;;;;;;14.02;7.75;;;25.00;29.60;;;;;;5122724;27;20061;-87
2022/03/22 10:17:10;;;;;;;18.25;8.18;;;25.00;29.50;;;;;;5105634;27;20488;-73
2022/03/22 10:19:50;;;;;;;18.85;8.48;;;24.90;29.40;;;;;;5121517;27;20028;-72
2022/03/22 10:22:25;;;;;;;13.85;8.52;;;24.90;29.30;;;;;;5140774;27;20002;-73
2022/03/22 10:24:52;;;;;;;14.50;8.45;;;24.90;29.30;;;;;;5124366;27;20033;-73
2022/03/22 10:27:20;;;;;;;13.80;8.00;;;24.90;29.20;;;;;;5140973;27;20031;-73
2022/03/22 10:29:46;;;;;;;16.23;8.25;;;24.90;29.20;;;;;;5124323;27;20011;-75
2022/03/22 10:32:12;;;;;;;15.75;8.82;;;25.00;29.10;;;;;;5141317;27;20007;-73
2022/03/22 10:34:42;;;;;;;11.82;8.32;;;25.10;29.10;;;;;;5142911;27;20480;-85
2022/03/22 10:37:08;;;;;;;14.77;8.15;;;25.10;29.00;;;;;;5126381;27;20015;-74
2022/03/22 10:39:41;;;;;;;13.48;7.68;;;25.10;28.90;;;;;;5108302;27;20082;-74
2022/03/22 10:42:08;;;;;;;14.15;8.43;;;25.20;28.90;;;;;;5107095;27;20469;-73
2022/03/22 10:44:35;;;;;;;13.13;7.80;;;25.10;28.90;;;;;;5141537;27;20007;-73
2022/03/22 10:47:02;;;;;;;14.77;8.40;;;25.10;28.90;;;;;;5124208;27;20022;-74
2022/03/22 10:49:30;;;;;;;15.07;7.60;;;25.20;28.70;;;;;;5124638;27;20098;-75
2022/03/22 10:51:56;;;;;;;12.32;8.00;;;25.20;28.70;;;;;;5123073;27;20059;-74
2022/03/22 10:54:22;;;;;;;12.65;8.45;;;25.10;28.70;;;;;;5140436;27;20022;-73
2022/03/22 10:56:56;;;;;;;13.18;8.70;;;25.10;28.50;;;;;;5124198;27;20025;-73
2022/03/22 10:59:26;;;;;;;18.63;9.02;;;25.10;28.60;;;;;;5123266;27;20015;-73
2022/03/22 11:01:55;;;;;;;14.23;8.55;;;25.00;28.50;;;;;;5159276;27;20059;-74
2022/03/22 11:04:21;;;;;;;13.23;8.43;;;25.10;28.40;;;;;;5141285;27;20015;-79
2022/03/22 11:06:48;;;;;;;14.65;8.30;;;25.10;28.40;;;;;;5140997;27;20015;-74
2022/03/22 11:09:15;;;;;;;13.85;9.20;;;25.00;28.20;;;;;;5123865;27;20499;-74
2022/03/22 11:11:41;;;;;;;13.57;8.30;;;25.00;28.00;;;;;;5140701;27;20487;-72
2022/03/22 11:14:07;;;;;;;13.60;8.43;;;25.00;28.10;;;;;;5140984;27;20041;-74
2022/03/22 11:16:34;;;;;;;12.40;8.38;;;25.10;28.10;;;;;;5106307;27;20386;-74
2022/03/22 11:19:00;;;;;;;14.25;8.13;;;25.20;28.10;;;;;;5107025;27;20042;-73
2022/03/22 11:21:27;;;;;;;14.25;8.25;;;25.20;28.10;;;;;;5124379;27;20014;-84
2022/03/22 11:24:08;;;;;;;12.73;7.75;;;25.30;28.00;;;;;;5140952;27;20366;-73
2022/03/22 11:26:45;;;;;;;13.70;8.23;;;25.30;28.00;;;;;;5140201;27;20039;-74
2022/03/22 11:29:11;;;;;;;16.73;8.30;;;25.20;28.00;;;;;;5105846;27;20022;-73
2022/03/22 11:31:37;;;;;;;13.10;7.88;;;25.20;28.10;;;;;;5122352;27;20038;-72
2022/03/22 11:34:11;;;;;;;13.57;8.43;;;25.10;28.10;;;;;;5107051;27;20033;-74
2022/03/22 11:36:45;;;;;;;16.45;8.52;;;25.20;28.20;;;;;;5109739;27;20091;-74
2022/03/22 11:39:19;;;;;;;18.25;8.48;;;25.20;28.10;;;;;;5106059;27;20011;-75
2022/03/22 11:44:36;;;;;;;17.10;9.65;;;25.20;28.00;;;;;;5157136;27;20075;-74
2022/03/22 11:47:17;;;;;;;14.57;8.70;;;25.10;28.00;;;;;;5159318;27;20022;-74
2022/03/22 11:50:03;;;;;;;18.73;9.40;;;24.90;28.20;;;;;;5124484;27;20015;-73
2022/03/22 11:52:39;;;;;;;28.13;11.75;;;24.80;28.70;;;;;;5139428;27;20019;-73
2022/03/22 11:55:16;;;;;;;22.77;12.10;;;24.70;28.70;;;;;;5138595;27;20014;-74
2022/03/22 11:57:51;;;;;;;22.08;10.57;;;24.70;29.00;;;;;;5120048;27;20110;-73
2022/03/22 12:00:45;;;;;;;20.40;11.02;;;24.60;28.90;;;;;;5137418;27;20068;-74
2022/03/22 12:03:14;;;;;;;16.25;10.10;;;24.50;29.00;;;;;;5121952;27;20052;-74
2022/03/22 12:05:41;;;;;;;22.42;11.10;;;24.50;29.60;;;;;;5118702;27;20053;-74
2022/03/22 12:08:07;;;;;;;23.85;10.43;;;24.50;29.40;;;;;;5136593;27;20023;-76
2022/03/22 12:10:37;;;;;;;22.00;10.53;;;24.50;29.30;;;;;;5136839;27;20130;-75
2022/03/22 12:13:03;;;;;;;18.90;10.75;;;24.50;29.60;;;;;;5119189;27;20018;-75
2022/03/22 12:15:29;;;;;;;16.45;10.63;;;24.50;29.50;;;;;;5120252;27;20084;-75
2022/03/22 12:17:59;;;;;;;23.95;11.73;;;24.40;29.50;;;;;;5137273;27;20002;-79
2022/03/22 12:20:25;;;;;;;40.65;13.95;;;24.50;29.10;;;;;;5120311;27;20049;-75
2022/03/22 12:22:59;;;;;;;22.98;12.30;;;24.30;28.40;;;;;;5120357;27;20054;-74
2022/03/22 12:25:27;;;;;;;18.05;11.98;;;24.00;28.30;;;;;;5121387;27;20046;-74
2022/03/22 12:28:01;;;;;;;28.15;10.98;;;23.90;28.60;;;;;;5137731;27;20042;-73
2022/03/22 12:30:29;;;;;;;14.40;9.80;;;23.80;29.00;;;;;;5138149;27;20038;-74
2022/03/22 12:33:01;;;;;;;17.98;9.55;;;23.80;29.00;;;;;;5122088;27;20030;-74
2022/03/22 12:35:27;;;;;;;17.17;9.55;;;23.90;28.90;;;;;;5121353;27;20015;-76
2022/03/22 12:37:54;;;;;;;14.50;8.57;;;23.90;28.40;;;;;;5104233;27;20011;-73
2022/03/22 12:40:21;;;;;;;18.00;9.25;;;23.90;28.70;;;;;;5122666;27;20046;-74
2022/03/22 12:42:47;;;;;;;17.05;8.60;;;23.90;28.80;;;;;;5122721;27;20106;-75
2022/03/22 12:45:13;;;;;;;16.90;9.38;;;23.80;28.90;;;;;;5122279;27;20040;-75
2022/03/22 12:47:39;;;;;;;15.90;8.43;;;23.70;28.80;;;;;;5137921;27;20034;-75
2022/03/22 12:50:09;;;;;;;20.67;8.68;;;23.80;28.80;;;;;;5120635;27;20322;-76
2022/03/22 12:52:35;;;;;;;13.60;8.63;;;23.70;28.40;;;;;;5105107;27;20034;-76
2022/03/22 12:55:01;;;;;;;18.15;8.27;;;23.60;27.60;;;;;;5105941;27;20015;-75
2022/03/22 12:57:29;;;;;;;15.30;8.38;;;23.60;28.00;;;;;;5109577;27;20026;-75
2022/03/22 12:59:55;;;;;;;15.35;8.45;;;23.40;27.90;;;;;;5126940;27;20015;-76
2022/03/22 13:02:22;;;;;;;14.20;8.05;;;23.40;27.90;;;;;;5126977;27;20500;-75
2022/03/22 13:04:50;;;;;;;14.95;8.45;;;23.30;27.90;;;;;;5109828;27;20026;-75